sensor_id;sensor_type;location;lat;lon;timestamp;P1;durP1;ratioP1;P2;durP2;ratioP2
7605;SDS011;3844;53.360;9.738;2022-08-19T00:00:36;7.88;;;3.92;;
7605;SDS011;3844;53.360;9.738;2022-08-19T00:02:37;7.18;;;4.22;;
7605;SDS011;3844;53.360;9.738;2022-08-19T00:04:38;6.32;;;3.70;;
7605;SDS011;3844;53.360;9.738;2022-08-19T00:06:40;7.18;;;4.00;;
7605;SDS011;3844;53.360;9.738;2022-08-19T00:08:42;10.55;;;5.18;;
7605;SDS011;3844;53.360;9.738;2022-08-19T00:10:43;7.28;;;4.10;;
7605;SDS011;3844;53.360;9.738;2022-08-19T00:12:45;9.13;;;4.55;;
7605;SDS011;3844;53.360;9.738;2022-08-19T00:14:46;8.80;;;4.05;;
7605;SDS011;3844;53.360;9.738;2022-08-19T00:16:48;8.75;;;4.45;;
7605;SDS011;3844;53.360;9.738;2022-08-19T00:18:49;7.50;;;4.40;;
7605;SDS011;3844;53.360;9.738;2022-08-19T00:20:50;7.35;;;4.10;;
7605;SDS011;3844;53.360;9.738;2022-08-19T00:22:50;5.72;;;3.58;;
7605;SDS011;3844;53.360;9.738;2022-08-19T00:24:51;9.95;;;4.95;;
7605;SDS011;3844;53.360;9.738;2022-08-19T00:26:52;8.13;;;4.50;;
7605;SDS011;3844;53.360;9.738;2022-08-19T00:28:53;7.63;;;4.15;;
7605;SDS011;3844;53.360;9.738;2022-08-19T00:30:55;6.80;;;3.65;;
7605;SDS011;3844;53.360;9.738;2022-08-19T00:32:56;7.15;;;3.67;;
7605;SDS011;3844;53.360;9.738;2022-08-19T00:34:57;6.82;;;3.58;;
7605;SDS011;3844;53.360;9.738;2022-08-19T00:36:58;7.30;;;3.90;;
7605;SDS011;3844;53.360;9.738;2022-08-19T00:38:59;6.68;;;4.10;;
7605;SDS011;3844;53.360;9.738;2022-08-19T00:41:00;8.18;;;4.65;;
7605;SDS011;3844;53.360;9.738;2022-08-19T00:43:01;7.00;;;4.80;;
7605;SDS011;3844;53.360;9.738;2022-08-19T00:45:14;8.90;;;4.72;;
7605;SDS011;3844;53.360;9.738;2022-08-19T00:47:20;8.57;;;4.70;;
7605;SDS011;3844;53.360;9.738;2022-08-19T00:49:29;6.88;;;3.88;;
7605;SDS011;3844;53.360;9.738;2022-08-19T00:51:32;8.75;;;4.30;;
7605;SDS011;3844;53.360;9.738;2022-08-19T00:53:34;8.43;;;4.22;;
7605;SDS011;3844;53.360;9.738;2022-08-19T00:55:35;7.75;;;4.40;;
7605;SDS011;3844;53.360;9.738;2022-08-19T00:57:40;10.20;;;5.45;;
7605;SDS011;3844;53.360;9.738;2022-08-19T00:59:46;9.88;;;4.88;;
7605;SDS011;3844;53.360;9.738;2022-08-19T01:01:52;9.73;;;4.38;;
7605;SDS011;3844;53.360;9.738;2022-08-19T01:03:53;9.20;;;4.75;;
7605;SDS011;3844;53.360;9.738;2022-08-19T01:05:54;5.72;;;3.83;;
7605;SDS011;3844;53.360;9.738;2022-08-19T01:07:56;7.07;;;3.80;;
7605;SDS011;3844;53.360;9.738;2022-08-19T01:09:59;7.90;;;4.65;;
7605;SDS011;3844;53.360;9.738;2022-08-19T01:11:59;6.18;;;3.83;;
7605;SDS011;3844;53.360;9.738;2022-08-19T01:14:00;9.57;;;4.47;;
7605;SDS011;3844;53.360;9.738;2022-08-19T01:16:03;9.63;;;4.60;;
7605;SDS011;3844;53.360;9.738;2022-08-19T01:18:08;8.98;;;4.45;;
7605;SDS011;3844;53.360;9.738;2022-08-19T01:20:13;7.25;;;4.20;;
7605;SDS011;3844;53.360;9.738;2022-08-19T01:24:22;7.28;;;4.07;;
7605;SDS011;3844;53.360;9.738;2022-08-19T01:26:24;7.72;;;4.40;;
7605;SDS011;3844;53.360;9.738;2022-08-19T01:28:26;7.65;;;4.45;;
7605;SDS011;3844;53.360;9.738;2022-08-19T01:30:32;7.72;;;3.85;;
7605;SDS011;3844;53.360;9.738;2022-08-19T01:32:35;7.50;;;4.40;;
7605;SDS011;3844;53.360;9.738;2022-08-19T01:34:35;6.95;;;4.05;;
7605;SDS011;3844;53.360;9.738;2022-08-19T01:36:38;7.70;;;3.97;;
7605;SDS011;3844;53.360;9.738;2022-08-19T01:38:45;6.72;;;3.47;;
7605;SDS011;3844;53.360;9.738;2022-08-19T01:40:46;9.38;;;4.45;;
7605;SDS011;3844;53.360;9.738;2022-08-19T01:42:47;9.82;;;4.40;;
7605;SDS011;3844;53.360;9.738;2022-08-19T01:44:49;8.27;;;4.40;;
7605;SDS011;3844;53.360;9.738;2022-08-19T01:46:50;7.72;;;4.72;;
7605;SDS011;3844;53.360;9.738;2022-08-19T01:48:51;8.85;;;4.72;;
7605;SDS011;3844;53.360;9.738;2022-08-19T01:50:52;7.28;;;4.20;;
7605;SDS011;3844;53.360;9.738;2022-08-19T01:52:53;9.40;;;4.95;;
7605;SDS011;3844;53.360;9.738;2022-08-19T01:54:53;7.63;;;4.40;;
7605;SDS011;3844;53.360;9.738;2022-08-19T01:57:05;12.02;;;4.80;;
7605;SDS011;3844;53.360;9.738;2022-08-19T01:59:10;6.68;;;4.43;;
7605;SDS011;3844;53.360;9.738;2022-08-19T02:01:17;7.25;;;4.53;;
7605;SDS011;3844;53.360;9.738;2022-08-19T02:03:19;8.18;;;4.90;;
7605;SDS011;3844;53.360;9.738;2022-08-19T02:05:19;9.98;;;4.80;;
7605;SDS011;3844;53.360;9.738;2022-08-19T02:07:21;9.20;;;4.82;;
7605;SDS011;3844;53.360;9.738;2022-08-19T02:09:22;9.23;;;4.57;;
7605;SDS011;3844;53.360;9.738;2022-08-19T02:11:28;6.95;;;3.95;;
7605;SDS011;3844;53.360;9.738;2022-08-19T02:13:31;9.40;;;5.60;;
7605;SDS011;3844;53.360;9.738;2022-08-19T02:15:33;8.15;;;4.97;;
7605;SDS011;3844;53.360;9.738;2022-08-19T02:17:34;8.57;;;5.35;;
7605;SDS011;3844;53.360;9.738;2022-08-19T02:19:36;9.57;;;5.80;;
7605;SDS011;3844;53.360;9.738;2022-08-19T02:21:36;8.68;;;5.40;;
7605;SDS011;3844;53.360;9.738;2022-08-19T02:23:37;9.85;;;5.10;;
7605;SDS011;3844;53.360;9.738;2022-08-19T02:25:38;9.75;;;5.07;;
7605;SDS011;3844;53.360;9.738;2022-08-19T02:27:40;9.45;;;5.60;;
7605;SDS011;3844;53.360;9.738;2022-08-19T02:29:41;10.02;;;6.32;;
7605;SDS011;3844;53.360;9.738;2022-08-19T02:31:42;10.45;;;5.78;;
7605;SDS011;3844;53.360;9.738;2022-08-19T02:33:43;10.07;;;5.60;;
7605;SDS011;3844;53.360;9.738;2022-08-19T02:35:45;10.43;;;6.85;;
7605;SDS011;3844;53.360;9.738;2022-08-19T02:37:46;10.43;;;6.22;;
7605;SDS011;3844;53.360;9.738;2022-08-19T02:40:06;11.93;;;6.97;;
7605;SDS011;3844;53.360;9.738;2022-08-19T02:42:07;13.82;;;6.45;;
7605;SDS011;3844;53.360;9.738;2022-08-19T02:44:08;13.00;;;7.53;;
7605;SDS011;3844;53.360;9.738;2022-08-19T02:46:16;14.57;;;7.47;;
7605;SDS011;3844;53.360;9.738;2022-08-19T02:48:21;13.90;;;7.78;;
7605;SDS011;3844;53.360;9.738;2022-08-19T02:50:23;14.85;;;7.82;;
7605;SDS011;3844;53.360;9.738;2022-08-19T02:52:24;13.32;;;6.55;;
7605;SDS011;3844;53.360;9.738;2022-08-19T02:54:25;16.83;;;8.88;;
7605;SDS011;3844;53.360;9.738;2022-08-19T02:56:26;13.02;;;6.80;;
7605;SDS011;3844;53.360;9.738;2022-08-19T02:58:27;17.50;;;9.07;;
7605;SDS011;3844;53.360;9.738;2022-08-19T03:00:28;12.98;;;7.57;;
7605;SDS011;3844;53.360;9.738;2022-08-19T03:02:28;16.10;;;8.40;;
7605;SDS011;3844;53.360;9.738;2022-08-19T03:04:30;18.00;;;8.82;;
7605;SDS011;3844;53.360;9.738;2022-08-19T03:06:31;18.73;;;7.65;;
7605;SDS011;3844;53.360;9.738;2022-08-19T03:08:32;16.60;;;9.20;;
7605;SDS011;3844;53.360;9.738;2022-08-19T03:10:33;18.20;;;9.00;;
7605;SDS011;3844;53.360;9.738;2022-08-19T03:12:39;13.23;;;7.43;;
7605;SDS011;3844;53.360;9.738;2022-08-19T03:14:40;15.10;;;7.57;;
7605;SDS011;3844;53.360;9.738;2022-08-19T03:16:43;17.25;;;8.60;;
7605;SDS011;3844;53.360;9.738;2022-08-19T03:18:45;20.80;;;8.90;;
7605;SDS011;3844;53.360;9.738;2022-08-19T03:20:50;16.45;;;8.95;;
7605;SDS011;3844;53.360;9.738;2022-08-19T03:22:56;19.63;;;9.93;;
7605;SDS011;3844;53.360;9.738;2022-08-19T03:24:57;18.08;;;9.20;;
7605;SDS011;3844;53.360;9.738;2022-08-19T03:26:59;17.17;;;8.25;;
7605;SDS011;3844;53.360;9.738;2022-08-19T03:29:03;20.27;;;9.80;;
7605;SDS011;3844;53.360;9.738;2022-08-19T03:31:06;18.33;;;8.32;;
7605;SDS011;3844;53.360;9.738;2022-08-19T03:33:10;13.82;;;6.82;;
7605;SDS011;3844;53.360;9.738;2022-08-19T03:35:14;17.05;;;8.18;;
7605;SDS011;3844;53.360;9.738;2022-08-19T03:37:14;18.17;;;8.20;;
7605;SDS011;3844;53.360;9.738;2022-08-19T03:39:15;16.20;;;8.25;;
7605;SDS011;3844;53.360;9.738;2022-08-19T03:41:17;16.83;;;7.82;;
7605;SDS011;3844;53.360;9.738;2022-08-19T03:45:21;15.98;;;6.22;;
7605;SDS011;3844;53.360;9.738;2022-08-19T03:47:21;20.27;;;8.48;;
7605;SDS011;3844;53.360;9.738;2022-08-19T03:49:23;15.30;;;7.32;;
7605;SDS011;3844;53.360;9.738;2022-08-19T03:51:28;14.82;;;7.22;;
7605;SDS011;3844;53.360;9.738;2022-08-19T03:53:33;17.92;;;8.13;;
7605;SDS011;3844;53.360;9.738;2022-08-19T03:55:43;20.10;;;8.85;;
7605;SDS011;3844;53.360;9.738;2022-08-19T03:57:44;12.57;;;7.40;;
7605;SDS011;3844;53.360;9.738;2022-08-19T03:59:45;16.77;;;8.07;;
7605;SDS011;3844;53.360;9.738;2022-08-19T04:01:46;18.42;;;8.10;;
7605;SDS011;3844;53.360;9.738;2022-08-19T04:03:48;20.13;;;9.48;;
7605;SDS011;3844;53.360;9.738;2022-08-19T04:05:49;18.10;;;8.50;;
7605;SDS011;3844;53.360;9.738;2022-08-19T04:07:50;18.23;;;8.88;;
7605;SDS011;3844;53.360;9.738;2022-08-19T04:09:51;20.00;;;8.73;;
7605;SDS011;3844;53.360;9.738;2022-08-19T04:11:52;17.35;;;8.93;;
7605;SDS011;3844;53.360;9.738;2022-08-19T04:13:55;18.95;;;8.50;;
7605;SDS011;3844;53.360;9.738;2022-08-19T04:15:56;14.68;;;7.18;;
7605;SDS011;3844;53.360;9.738;2022-08-19T04:17:57;17.23;;;8.68;;
7605;SDS011;3844;53.360;9.738;2022-08-19T04:19:58;16.40;;;8.43;;
7605;SDS011;3844;53.360;9.738;2022-08-19T04:21:59;16.45;;;7.40;;
7605;SDS011;3844;53.360;9.738;2022-08-19T04:24:01;18.27;;;8.45;;
7605;SDS011;3844;53.360;9.738;2022-08-19T04:26:02;16.88;;;9.10;;
7605;SDS011;3844;53.360;9.738;2022-08-19T04:28:03;17.73;;;8.88;;
7605;SDS011;3844;53.360;9.738;2022-08-19T04:30:04;16.75;;;7.72;;
7605;SDS011;3844;53.360;9.738;2022-08-19T04:32:05;20.20;;;9.75;;
7605;SDS011;3844;53.360;9.738;2022-08-19T04:34:07;20.55;;;8.90;;
7605;SDS011;3844;53.360;9.738;2022-08-19T04:36:17;16.35;;;8.27;;
7605;SDS011;3844;53.360;9.738;2022-08-19T04:38:21;20.17;;;9.40;;
7605;SDS011;3844;53.360;9.738;2022-08-19T04:40:24;15.73;;;8.32;;
7605;SDS011;3844;53.360;9.738;2022-08-19T04:42:43;17.75;;;8.60;;
7605;SDS011;3844;53.360;9.738;2022-08-19T04:44:44;19.58;;;9.10;;
7605;SDS011;3844;53.360;9.738;2022-08-19T04:46:46;18.77;;;8.57;;
7605;SDS011;3844;53.360;9.738;2022-08-19T04:48:50;19.77;;;9.85;;
7605;SDS011;3844;53.360;9.738;2022-08-19T04:50:53;15.10;;;7.60;;
7605;SDS011;3844;53.360;9.738;2022-08-19T04:52:57;12.85;;;8.05;;
7605;SDS011;3844;53.360;9.738;2022-08-19T04:54:58;18.92;;;9.18;;
7605;SDS011;3844;53.360;9.738;2022-08-19T04:56:58;15.02;;;7.78;;
7605;SDS011;3844;53.360;9.738;2022-08-19T04:58:59;15.30;;;8.38;;
7605;SDS011;3844;53.360;9.738;2022-08-19T05:01:04;16.77;;;8.13;;
7605;SDS011;3844;53.360;9.738;2022-08-19T05:03:05;12.55;;;7.22;;
7605;SDS011;3844;53.360;9.738;2022-08-19T05:05:05;11.00;;;7.20;;
7605;SDS011;3844;53.360;9.738;2022-08-19T05:07:07;13.45;;;7.18;;
7605;SDS011;3844;53.360;9.738;2022-08-19T05:09:08;12.02;;;6.30;;
7605;SDS011;3844;53.360;9.738;2022-08-19T05:13:11;13.55;;;6.90;;
7605;SDS011;3844;53.360;9.738;2022-08-19T05:15:12;12.60;;;6.03;;
7605;SDS011;3844;53.360;9.738;2022-08-19T05:17:13;11.57;;;5.90;;
7605;SDS011;3844;53.360;9.738;2022-08-19T05:19:14;15.95;;;8.50;;
7605;SDS011;3844;53.360;9.738;2022-08-19T05:21:34;12.38;;;7.38;;
7605;SDS011;3844;53.360;9.738;2022-08-19T05:23:53;12.00;;;7.00;;
7605;SDS011;3844;53.360;9.738;2022-08-19T05:25:54;12.02;;;7.18;;
7605;SDS011;3844;53.360;9.738;2022-08-19T05:27:56;13.98;;;7.55;;
7605;SDS011;3844;53.360;9.738;2022-08-19T05:29:56;14.15;;;7.97;;
7605;SDS011;3844;53.360;9.738;2022-08-19T05:31:57;17.30;;;8.95;;
7605;SDS011;3844;53.360;9.738;2022-08-19T05:33:59;16.05;;;8.10;;
7605;SDS011;3844;53.360;9.738;2022-08-19T05:36:00;15.35;;;7.90;;
7605;SDS011;3844;53.360;9.738;2022-08-19T05:38:02;16.52;;;9.10;;
7605;SDS011;3844;53.360;9.738;2022-08-19T05:40:03;13.98;;;7.50;;
7605;SDS011;3844;53.360;9.738;2022-08-19T05:42:06;17.40;;;8.68;;
7605;SDS011;3844;53.360;9.738;2022-08-19T05:44:09;15.88;;;8.23;;
7605;SDS011;3844;53.360;9.738;2022-08-19T05:46:15;18.70;;;9.07;;
7605;SDS011;3844;53.360;9.738;2022-08-19T05:48:18;15.05;;;8.02;;
7605;SDS011;3844;53.360;9.738;2022-08-19T05:50:20;12.50;;;7.30;;
7605;SDS011;3844;53.360;9.738;2022-08-19T05:52:21;16.67;;;7.93;;
7605;SDS011;3844;53.360;9.738;2022-08-19T05:54:22;21.02;;;9.50;;
7605;SDS011;3844;53.360;9.738;2022-08-19T05:56:24;19.33;;;9.07;;
7605;SDS011;3844;53.360;9.738;2022-08-19T05:58:25;14.63;;;7.57;;
7605;SDS011;3844;53.360;9.738;2022-08-19T06:00:31;21.83;;;9.57;;
7605;SDS011;3844;53.360;9.738;2022-08-19T06:02:32;17.98;;;8.85;;
7605;SDS011;3844;53.360;9.738;2022-08-19T06:04:33;17.13;;;8.95;;
7605;SDS011;3844;53.360;9.738;2022-08-19T06:06:34;14.23;;;8.27;;
7605;SDS011;3844;53.360;9.738;2022-08-19T06:08:36;17.15;;;7.68;;
7605;SDS011;3844;53.360;9.738;2022-08-19T06:10:38;14.15;;;7.70;;
7605;SDS011;3844;53.360;9.738;2022-08-19T06:12:38;17.75;;;8.30;;
7605;SDS011;3844;53.360;9.738;2022-08-19T06:14:39;15.70;;;6.95;;
7605;SDS011;3844;53.360;9.738;2022-08-19T06:16:41;15.45;;;6.95;;
7605;SDS011;3844;53.360;9.738;2022-08-19T06:18:42;18.20;;;7.72;;
7605;SDS011;3844;53.360;9.738;2022-08-19T06:20:44;18.90;;;9.00;;
7605;SDS011;3844;53.360;9.738;2022-08-19T06:22:45;17.20;;;8.50;;
7605;SDS011;3844;53.360;9.738;2022-08-19T06:24:49;14.07;;;7.63;;
7605;SDS011;3844;53.360;9.738;2022-08-19T06:26:53;20.48;;;9.18;;
7605;SDS011;3844;53.360;9.738;2022-08-19T06:28:54;16.10;;;7.53;;
7605;SDS011;3844;53.360;9.738;2022-08-19T06:30:55;16.20;;;8.13;;
7605;SDS011;3844;53.360;9.738;2022-08-19T06:32:56;16.20;;;7.90;;
7605;SDS011;3844;53.360;9.738;2022-08-19T06:34:57;19.85;;;8.75;;
7605;SDS011;3844;53.360;9.738;2022-08-19T06:36:58;19.08;;;8.07;;
7605;SDS011;3844;53.360;9.738;2022-08-19T06:39:10;16.45;;;9.18;;
7605;SDS011;3844;53.360;9.738;2022-08-19T06:41:13;14.85;;;7.30;;
7605;SDS011;3844;53.360;9.738;2022-08-19T06:43:14;16.50;;;8.02;;
7605;SDS011;3844;53.360;9.738;2022-08-19T06:45:15;12.35;;;6.70;;
7605;SDS011;3844;53.360;9.738;2022-08-19T06:47:19;14.75;;;7.60;;
7605;SDS011;3844;53.360;9.738;2022-08-19T06:49:22;13.43;;;6.22;;
7605;SDS011;3844;53.360;9.738;2022-08-19T06:51:23;15.07;;;7.75;;
7605;SDS011;3844;53.360;9.738;2022-08-19T06:53:25;13.18;;;7.32;;
7605;SDS011;3844;53.360;9.738;2022-08-19T06:55:28;20.40;;;8.75;;
7605;SDS011;3844;53.360;9.738;2022-08-19T06:57:30;14.80;;;7.80;;
7605;SDS011;3844;53.360;9.738;2022-08-19T06:59:32;16.45;;;7.78;;
7605;SDS011;3844;53.360;9.738;2022-08-19T07:01:43;13.68;;;7.32;;
7605;SDS011;3844;53.360;9.738;2022-08-19T07:03:49;15.15;;;9.10;;
7605;SDS011;3844;53.360;9.738;2022-08-19T07:05:50;18.70;;;9.38;;
7605;SDS011;3844;53.360;9.738;2022-08-19T07:07:50;20.23;;;9.80;;
7605;SDS011;3844;53.360;9.738;2022-08-19T07:09:51;14.63;;;8.48;;
7605;SDS011;3844;53.360;9.738;2022-08-19T07:11:53;13.20;;;7.95;;
7605;SDS011;3844;53.360;9.738;2022-08-19T07:13:55;17.60;;;10.02;;
7605;SDS011;3844;53.360;9.738;2022-08-19T07:15:55;16.17;;;9.13;;
7605;SDS011;3844;53.360;9.738;2022-08-19T07:17:56;14.15;;;8.60;;
7605;SDS011;3844;53.360;9.738;2022-08-19T07:19:57;14.13;;;8.32;;
7605;SDS011;3844;53.360;9.738;2022-08-19T07:21:58;16.27;;;8.95;;
7605;SDS011;3844;53.360;9.738;2022-08-19T07:24:01;15.15;;;8.65;;
7605;SDS011;3844;53.360;9.738;2022-08-19T07:26:13;17.70;;;9.70;;
7605;SDS011;3844;53.360;9.738;2022-08-19T07:28:17;17.25;;;9.13;;
7605;SDS011;3844;53.360;9.738;2022-08-19T07:30:18;17.25;;;9.80;;
7605;SDS011;3844;53.360;9.738;2022-08-19T07:32:19;18.95;;;10.15;;
7605;SDS011;3844;53.360;9.738;2022-08-19T07:34:19;18.35;;;10.18;;
7605;SDS011;3844;53.360;9.738;2022-08-19T07:36:25;25.88;;;12.35;;
7605;SDS011;3844;53.360;9.738;2022-08-19T07:38:32;19.15;;;10.85;;
7605;SDS011;3844;53.360;9.738;2022-08-19T07:40:33;23.77;;;13.23;;
7605;SDS011;3844;53.360;9.738;2022-08-19T07:42:34;21.90;;;13.00;;
7605;SDS011;3844;53.360;9.738;2022-08-19T07:44:35;21.27;;;11.93;;
7605;SDS011;3844;53.360;9.738;2022-08-19T07:46:38;20.23;;;12.38;;
7605;SDS011;3844;53.360;9.738;2022-08-19T07:48:41;23.90;;;13.30;;
7605;SDS011;3844;53.360;9.738;2022-08-19T07:50:44;21.30;;;12.77;;
7605;SDS011;3844;53.360;9.738;2022-08-19T07:52:45;22.60;;;12.68;;
7605;SDS011;3844;53.360;9.738;2022-08-19T07:54:46;24.85;;;14.38;;
7605;SDS011;3844;53.360;9.738;2022-08-19T07:56:47;21.75;;;12.88;;
7605;SDS011;3844;53.360;9.738;2022-08-19T07:58:50;15.35;;;8.80;;
7605;SDS011;3844;53.360;9.738;2022-08-19T08:00:52;17.85;;;10.45;;
7605;SDS011;3844;53.360;9.738;2022-08-19T08:02:52;24.17;;;13.18;;
7605;SDS011;3844;53.360;9.738;2022-08-19T08:04:53;19.25;;;11.75;;
7605;SDS011;3844;53.360;9.738;2022-08-19T08:07:12;22.42;;;13.45;;
7605;SDS011;3844;53.360;9.738;2022-08-19T08:09:33;22.42;;;12.60;;
7605;SDS011;3844;53.360;9.738;2022-08-19T08:11:36;19.33;;;12.07;;
7605;SDS011;3844;53.360;9.738;2022-08-19T08:13:41;20.25;;;11.95;;
7605;SDS011;3844;53.360;9.738;2022-08-19T08:15:42;23.30;;;13.88;;
7605;SDS011;3844;53.360;9.738;2022-08-19T08:17:44;30.52;;;14.75;;
7605;SDS011;3844;53.360;9.738;2022-08-19T08:19:45;18.00;;;11.93;;
7605;SDS011;3844;53.360;9.738;2022-08-19T08:21:47;21.85;;;12.38;;
7605;SDS011;3844;53.360;9.738;2022-08-19T08:23:49;18.63;;;11.55;;
7605;SDS011;3844;53.360;9.738;2022-08-19T08:25:52;21.35;;;12.85;;
7605;SDS011;3844;53.360;9.738;2022-08-19T08:27:54;22.33;;;13.70;;
7605;SDS011;3844;53.360;9.738;2022-08-19T08:29:57;22.58;;;13.48;;
7605;SDS011;3844;53.360;9.738;2022-08-19T08:31:58;18.48;;;11.60;;
7605;SDS011;3844;53.360;9.738;2022-08-19T08:33:58;21.10;;;12.85;;
7605;SDS011;3844;53.360;9.738;2022-08-19T08:36:00;19.13;;;11.13;;
7605;SDS011;3844;53.360;9.738;2022-08-19T08:38:10;20.88;;;12.07;;
7605;SDS011;3844;53.360;9.738;2022-08-19T08:40:19;20.65;;;12.15;;
7605;SDS011;3844;53.360;9.738;2022-08-19T08:42:29;17.63;;;10.38;;
7605;SDS011;3844;53.360;9.738;2022-08-19T08:44:47;20.57;;;10.87;;
7605;SDS011;3844;53.360;9.738;2022-08-19T08:46:57;19.55;;;11.05;;
7605;SDS011;3844;53.360;9.738;2022-08-19T08:49:05;18.92;;;11.60;;
7605;SDS011;3844;53.360;9.738;2022-08-19T08:51:23;18.48;;;10.63;;
7605;SDS011;3844;53.360;9.738;2022-08-19T08:53:32;18.65;;;11.30;;
7605;SDS011;3844;53.360;9.738;2022-08-19T08:55:35;19.55;;;12.25;;
7605;SDS011;3844;53.360;9.738;2022-08-19T09:01:43;20.63;;;12.13;;
7605;SDS011;3844;53.360;9.738;2022-08-19T09:03:44;18.30;;;11.80;;
7605;SDS011;3844;53.360;9.738;2022-08-19T09:10:49;17.48;;;10.50;;
7605;SDS011;3844;53.360;9.738;2022-08-19T09:13:05;14.27;;;9.35;;
7605;SDS011;3844;53.360;9.738;2022-08-19T09:15:25;16.88;;;10.82;;
7605;SDS011;3844;53.360;9.738;2022-08-19T09:17:35;18.57;;;10.30;;
7605;SDS011;3844;53.360;9.738;2022-08-19T09:22:13;16.20;;;9.50;;
7605;SDS011;3844;53.360;9.738;2022-08-19T09:24:14;18.15;;;10.82;;
7605;SDS011;3844;53.360;9.738;2022-08-19T09:26:17;16.90;;;11.05;;
7605;SDS011;3844;53.360;9.738;2022-08-19T09:28:20;15.80;;;10.15;;
7605;SDS011;3844;53.360;9.738;2022-08-19T09:30:21;12.27;;;7.95;;
7605;SDS011;3844;53.360;9.738;2022-08-19T09:32:25;16.42;;;9.00;;
7605;SDS011;3844;53.360;9.738;2022-08-19T09:34:27;13.65;;;7.85;;
7605;SDS011;3844;53.360;9.738;2022-08-19T09:36:29;11.18;;;7.07;;
7605;SDS011;3844;53.360;9.738;2022-08-19T09:38:33;15.93;;;9.32;;
7605;SDS011;3844;53.360;9.738;2022-08-19T09:40:34;12.85;;;8.65;;
7605;SDS011;3844;53.360;9.738;2022-08-19T09:42:35;11.50;;;7.45;;
7605;SDS011;3844;53.360;9.738;2022-08-19T09:44:36;14.15;;;7.38;;
7605;SDS011;3844;53.360;9.738;2022-08-19T09:46:37;11.35;;;6.57;;
7605;SDS011;3844;53.360;9.738;2022-08-19T09:48:41;12.77;;;7.90;;
7605;SDS011;3844;53.360;9.738;2022-08-19T09:50:42;12.30;;;7.57;;
7605;SDS011;3844;53.360;9.738;2022-08-19T09:52:43;11.00;;;6.85;;
7605;SDS011;3844;53.360;9.738;2022-08-19T09:54:43;11.73;;;6.80;;
7605;SDS011;3844;53.360;9.738;2022-08-19T09:56:44;11.27;;;6.63;;
7605;SDS011;3844;53.360;9.738;2022-08-19T09:58:45;11.73;;;7.50;;
7605;SDS011;3844;53.360;9.738;2022-08-19T10:00:46;11.38;;;7.18;;
7605;SDS011;3844;53.360;9.738;2022-08-19T10:02:46;12.27;;;7.30;;
7605;SDS011;3844;53.360;9.738;2022-08-19T10:04:47;12.18;;;7.90;;
7605;SDS011;3844;53.360;9.738;2022-08-19T10:07:07;12.90;;;7.25;;
7605;SDS011;3844;53.360;9.738;2022-08-19T10:09:08;11.23;;;6.70;;
7605;SDS011;3844;53.360;9.738;2022-08-19T10:11:10;14.43;;;8.50;;
7605;SDS011;3844;53.360;9.738;2022-08-19T10:13:12;11.73;;;7.05;;
7605;SDS011;3844;53.360;9.738;2022-08-19T10:15:17;12.43;;;8.00;;
7605;SDS011;3844;53.360;9.738;2022-08-19T10:17:21;11.95;;;7.32;;
7605;SDS011;3844;53.360;9.738;2022-08-19T10:19:21;12.23;;;8.50;;
7605;SDS011;3844;53.360;9.738;2022-08-19T10:21:24;11.68;;;6.82;;
7605;SDS011;3844;53.360;9.738;2022-08-19T10:23:26;9.77;;;6.28;;
7605;SDS011;3844;53.360;9.738;2022-08-19T10:25:31;9.30;;;6.43;;
7605;SDS011;3844;53.360;9.738;2022-08-19T10:29:34;11.80;;;7.63;;
7605;SDS011;3844;53.360;9.738;2022-08-19T10:31:35;11.70;;;7.47;;
7605;SDS011;3844;53.360;9.738;2022-08-19T10:33:36;11.85;;;7.28;;
7605;SDS011;3844;53.360;9.738;2022-08-19T10:35:38;16.23;;;9.90;;
7605;SDS011;3844;53.360;9.738;2022-08-19T10:37:39;10.73;;;6.85;;
7605;SDS011;3844;53.360;9.738;2022-08-19T10:39:40;14.43;;;7.90;;
7605;SDS011;3844;53.360;9.738;2022-08-19T10:41:40;11.50;;;7.45;;
7605;SDS011;3844;53.360;9.738;2022-08-19T10:43:43;8.85;;;5.65;;
7605;SDS011;3844;53.360;9.738;2022-08-19T10:45:48;12.60;;;7.45;;
7605;SDS011;3844;53.360;9.738;2022-08-19T10:47:53;13.98;;;7.95;;
7605;SDS011;3844;53.360;9.738;2022-08-19T10:49:54;17.20;;;8.90;;
7605;SDS011;3844;53.360;9.738;2022-08-19T10:52:14;14.77;;;8.38;;
7605;SDS011;3844;53.360;9.738;2022-08-19T10:54:33;9.48;;;6.28;;
7605;SDS011;3844;53.360;9.738;2022-08-19T10:56:52;13.23;;;7.22;;
7605;SDS011;3844;53.360;9.738;2022-08-19T10:58:53;12.23;;;6.78;;
7605;SDS011;3844;53.360;9.738;2022-08-19T11:00:57;14.95;;;8.43;;
7605;SDS011;3844;53.360;9.738;2022-08-19T11:02:58;12.10;;;7.45;;
7605;SDS011;3844;53.360;9.738;2022-08-19T11:04:59;12.52;;;7.72;;
7605;SDS011;3844;53.360;9.738;2022-08-19T11:07:00;10.80;;;6.35;;
7605;SDS011;3844;53.360;9.738;2022-08-19T11:09:00;10.13;;;6.00;;
7605;SDS011;3844;53.360;9.738;2022-08-19T11:11:02;10.13;;;6.90;;
7605;SDS011;3844;53.360;9.738;2022-08-19T11:13:03;10.77;;;6.38;;
7605;SDS011;3844;53.360;9.738;2022-08-19T11:15:04;13.27;;;7.85;;
7605;SDS011;3844;53.360;9.738;2022-08-19T11:17:07;11.63;;;6.50;;
7605;SDS011;3844;53.360;9.738;2022-08-19T11:19:09;10.52;;;6.88;;
7605;SDS011;3844;53.360;9.738;2022-08-19T11:21:12;10.00;;;5.72;;
7605;SDS011;3844;53.360;9.738;2022-08-19T11:23:13;9.63;;;5.45;;
7605;SDS011;3844;53.360;9.738;2022-08-19T11:25:14;10.40;;;5.60;;
7605;SDS011;3844;53.360;9.738;2022-08-19T11:27:14;10.77;;;6.45;;
7605;SDS011;3844;53.360;9.738;2022-08-19T11:29:16;9.25;;;5.97;;
7605;SDS011;3844;53.360;9.738;2022-08-19T11:31:19;9.20;;;5.20;;
7605;SDS011;3844;53.360;9.738;2022-08-19T11:33:21;9.38;;;5.93;;
7605;SDS011;3844;53.360;9.738;2022-08-19T11:35:22;10.40;;;6.13;;
7605;SDS011;3844;53.360;9.738;2022-08-19T11:37:23;9.60;;;5.55;;
7605;SDS011;3844;53.360;9.738;2022-08-19T11:39:25;10.68;;;6.68;;
7605;SDS011;3844;53.360;9.738;2022-08-19T11:41:27;11.32;;;6.57;;
7605;SDS011;3844;53.360;9.738;2022-08-19T11:43:28;14.60;;;7.70;;
7605;SDS011;3844;53.360;9.738;2022-08-19T11:45:29;9.82;;;5.60;;
7605;SDS011;3844;53.360;9.738;2022-08-19T11:47:30;9.77;;;5.63;;
7605;SDS011;3844;53.360;9.738;2022-08-19T11:49:31;9.02;;;5.18;;
7605;SDS011;3844;53.360;9.738;2022-08-19T11:51:31;8.88;;;5.32;;
7605;SDS011;3844;53.360;9.738;2022-08-19T11:53:34;12.05;;;6.22;;
7605;SDS011;3844;53.360;9.738;2022-08-19T11:55:38;9.80;;;5.55;;
7605;SDS011;3844;53.360;9.738;2022-08-19T11:57:40;10.95;;;6.45;;
7605;SDS011;3844;53.360;9.738;2022-08-19T11:59:41;10.15;;;6.18;;
7605;SDS011;3844;53.360;9.738;2022-08-19T12:01:42;10.00;;;6.45;;
7605;SDS011;3844;53.360;9.738;2022-08-19T12:03:44;8.85;;;5.40;;
7605;SDS011;3844;53.360;9.738;2022-08-19T12:05:46;13.43;;;7.18;;
7605;SDS011;3844;53.360;9.738;2022-08-19T12:07:47;11.32;;;6.50;;
7605;SDS011;3844;53.360;9.738;2022-08-19T12:09:48;9.00;;;5.80;;
7605;SDS011;3844;53.360;9.738;2022-08-19T12:11:48;13.45;;;7.80;;
7605;SDS011;3844;53.360;9.738;2022-08-19T12:13:50;10.43;;;6.22;;
7605;SDS011;3844;53.360;9.738;2022-08-19T12:15:52;10.50;;;6.72;;
7605;SDS011;3844;53.360;9.738;2022-08-19T12:17:53;9.32;;;5.55;;
7605;SDS011;3844;53.360;9.738;2022-08-19T12:19:56;10.82;;;6.93;;
7605;SDS011;3844;53.360;9.738;2022-08-19T12:21:59;9.60;;;5.47;;
7605;SDS011;3844;53.360;9.738;2022-08-19T12:24:06;7.07;;;4.82;;
7605;SDS011;3844;53.360;9.738;2022-08-19T12:26:08;7.93;;;5.20;;
7605;SDS011;3844;53.360;9.738;2022-08-19T12:28:10;9.70;;;6.28;;
7605;SDS011;3844;53.360;9.738;2022-08-19T12:30:11;13.35;;;7.28;;
7605;SDS011;3844;53.360;9.738;2022-08-19T12:32:13;10.55;;;7.28;;
7605;SDS011;3844;53.360;9.738;2022-08-19T12:34:14;12.43;;;8.05;;
7605;SDS011;3844;53.360;9.738;2022-08-19T12:36:15;13.02;;;7.85;;
7605;SDS011;3844;53.360;9.738;2022-08-19T12:38:17;11.52;;;7.03;;
7605;SDS011;3844;53.360;9.738;2022-08-19T12:40:18;10.80;;;7.00;;
7605;SDS011;3844;53.360;9.738;2022-08-19T12:42:19;8.77;;;5.65;;
7605;SDS011;3844;53.360;9.738;2022-08-19T12:44:22;8.57;;;5.57;;
7605;SDS011;3844;53.360;9.738;2022-08-19T12:46:23;8.60;;;5.80;;
7605;SDS011;3844;53.360;9.738;2022-08-19T12:48:24;11.45;;;7.32;;
7605;SDS011;3844;53.360;9.738;2022-08-19T12:50:25;10.80;;;5.90;;
7605;SDS011;3844;53.360;9.738;2022-08-19T12:52:26;9.93;;;5.80;;